This is the latest recevied weather packets stored in our database for station/object DL1MMS-10. If no packets are shown the sender has not sent any weather packets the latest 10 day(s).
| Time | Temp. | Humidity | Pressure | Rain* | Wind** | Luminosity | Snow |
|---|---|---|---|---|---|---|---|
| 1777981373 | 19.44° C | 50% | 1009.1 hPa | 0 mm | - | - | - |
| 1777981073 | 20° C | 49% | 1009.1 hPa | 0 mm | - | - | - |
| 1777980772 | 20° C | 48% | 1008.9 hPa | 0 mm | - | - | - |
| 1777980472 | 20.56° C | 47% | 1009 hPa | 0 mm | - | - | - |
| 1777980172 | 21.11° C | 44% | 1009 hPa | 0 mm | - | - | - |
| 1777979871 | 21.67° C | 42% | 1009.1 hPa | 0 mm | - | - | - |
| 1777979571 | 21.67° C | 41% | 1009.1 hPa | 0 mm | - | - | - |
| 1777979271 | 22.78° C | 39% | 1009.1 hPa | 0 mm | - | - | - |
| 1777978971 | 23.33° C | 39% | 1009.1 hPa | 0 mm | - | - | - |
| 1777978670 | 23.89° C | 38% | 1009.1 hPa | 0 mm | - | - | - |
| 1777978370 | 24.44° C | 37% | 1009.1 hPa | 0 mm | - | - | - |
| 1777978070 | 25.56° C | 36% | 1009.2 hPa | 0 mm | - | - | - |
| 1777977769 | 25° C | 37% | 1009.2 hPa | 0 mm | - | - | - |
| 1777977469 | 25° C | 36% | 1009.2 hPa | 0 mm | - | - | - |
| 1777977169 | 25.56° C | 38% | 1009.2 hPa | 0 mm | - | - | - |
| 1777976869 | 25.56° C | 38% | 1009.3 hPa | 0 mm | - | - | - |
| 1777976568 | 25° C | 40% | 1009.2 hPa | 0 mm | - | - | - |
| 1777976268 | 24.44° C | 41% | 1009.2 hPa | 0 mm | - | - | - |
| 1777975968 | 23.33° C | 44% | 1009.3 hPa | 0 mm | - | - | - |
| 1777975667 | 22.22° C | 46% | 1009.3 hPa | 0 mm | - | - | - |
| 1777975367 | 21.67° C | 46% | 1009.3 hPa | 0 mm | - | - | - |
| 1777975067 | 20.56° C | 47% | 1009.3 hPa | 0 mm | - | - | - |
| 1777974767 | 20.56° C | 48% | 1009.4 hPa | 0 mm | - | - | - |
| 1777974466 | 20° C | 49% | 1009.4 hPa | 0 mm | - | - | - |
| 1777974166 | 20° C | 49% | 1009.4 hPa | 0 mm | - | - | - |
* Rain latest hour (hover to see other rain measurements)
** Current wind speed in m/s (hover to see current wind gust speed)